sensor_id;sensor_type;location;lat;lon;timestamp;temperature;humidity
17007;DHT22;8620;51.168;4.154;2023-06-10T07:01:21;28.00;99.90
17007;DHT22;8620;51.168;4.154;2023-06-10T07:03:47;28.90;99.90
17007;DHT22;8620;51.168;4.154;2023-06-10T07:06:15;28.40;99.90
17007;DHT22;8620;51.168;4.154;2023-06-10T07:08:46;28.90;99.90
17007;DHT22;8620;51.168;4.154;2023-06-10T07:11:15;28.80;99.90
17007;DHT22;8620;51.168;4.154;2023-06-10T07:13:52;28.60;99.90
17007;DHT22;8620;51.168;4.154;2023-06-10T07:16:21;28.50;99.90
17007;DHT22;8620;51.168;4.154;2023-06-10T07:18:52;28.10;99.90
17007;DHT22;8620;51.168;4.154;2023-06-10T07:21:19;27.80;99.90
17007;DHT22;8620;51.168;4.154;2023-06-10T07:23:58;27.80;99.90
17007;DHT22;8620;51.168;4.154;2023-06-10T07:26:24;28.10;99.90
17007;DHT22;8620;51.168;4.154;2023-06-10T07:28:54;28.80;99.90
17007;DHT22;8620;51.168;4.154;2023-06-10T07:31:39;29.60;99.90
17007;DHT22;8620;51.168;4.154;2023-06-10T07:34:06;30.40;99.90
17007;DHT22;8620;51.168;4.154;2023-06-10T07:36:32;31.10;99.90
17007;DHT22;8620;51.168;4.154;2023-06-10T07:39:27;30.50;99.90
17007;DHT22;8620;51.168;4.154;2023-06-10T07:42:01;30.00;99.90
17007;DHT22;8620;51.168;4.154;2023-06-10T07:44:32;30.00;99.90
17007;DHT22;8620;51.168;4.154;2023-06-10T07:47:04;29.90;99.90
17007;DHT22;8620;51.168;4.154;2023-06-10T07:49:32;29.90;99.90
17007;DHT22;8620;51.168;4.154;2023-06-10T07:52:27;29.80;99.90
17007;DHT22;8620;51.168;4.154;2023-06-10T07:55:16;31.20;99.90
17007;DHT22;8620;51.168;4.154;2023-06-10T07:58:32;30.40;99.90
17007;DHT22;8620;51.168;4.154;2023-06-10T08:01:02;30.70;99.90
17007;DHT22;8620;51.168;4.154;2023-06-10T08:03:48;31.10;99.90
17007;DHT22;8620;51.168;4.154;2023-06-10T08:06:22;31.70;99.90
17007;DHT22;8620;51.168;4.154;2023-06-10T08:08:55;31.60;99.90
17007;DHT22;8620;51.168;4.154;2023-06-10T08:11:21;32.40;99.90
17007;DHT22;8620;51.168;4.154;2023-06-10T08:13:51;32.20;99.90
17007;DHT22;8620;51.168;4.154;2023-06-10T08:16:38;32.00;99.90
17007;DHT22;8620;51.168;4.154;2023-06-10T08:19:30;32.70;99.90
17007;DHT22;8620;51.168;4.154;2023-06-10T08:22:43;32.70;99.90
17007;DHT22;8620;51.168;4.154;2023-06-10T08:25:23;32.80;99.90
17007;DHT22;8620;51.168;4.154;2023-06-10T08:27:57;33.50;99.90
17007;DHT22;8620;51.168;4.154;2023-06-10T08:30:26;32.30;99.90
17007;DHT22;8620;51.168;4.154;2023-06-10T08:33:30;31.60;99.90
17007;DHT22;8620;51.168;4.154;2023-06-10T08:36:16;31.80;99.90
17007;DHT22;8620;51.168;4.154;2023-06-10T08:38:59;31.00;99.90
17007;DHT22;8620;51.168;4.154;2023-06-10T08:41:32;30.90;99.90
17007;DHT22;8620;51.168;4.154;2023-06-10T08:44:30;31.20;99.90
17007;DHT22;8620;51.168;4.154;2023-06-10T08:47:07;31.20;99.90
17007;DHT22;8620;51.168;4.154;2023-06-10T08:49:45;31.90;99.90
17007;DHT22;8620;51.168;4.154;2023-06-10T08:52:16;32.50;99.90
17007;DHT22;8620;51.168;4.154;2023-06-10T08:54:59;32.70;99.90
17007;DHT22;8620;51.168;4.154;2023-06-10T08:57:37;33.00;99.90
17007;DHT22;8620;51.168;4.154;2023-06-10T09:00:08;33.70;99.90
17007;DHT22;8620;51.168;4.154;2023-06-10T09:02:36;33.70;99.90
17007;DHT22;8620;51.168;4.154;2023-06-10T09:05:05;33.50;99.80
17007;DHT22;8620;51.168;4.154;2023-06-10T09:07:38;32.80;99.90
17007;DHT22;8620;51.168;4.154;2023-06-10T09:10:11;33.30;99.90
17007;DHT22;8620;51.168;4.154;2023-06-10T09:12:55;33.80;99.70
17007;DHT22;8620;51.168;4.154;2023-06-10T09:15:28;34.50;99.00
17007;DHT22;8620;51.168;4.154;2023-06-10T09:17:54;34.50;99.00
17007;DHT22;8620;51.168;4.154;2023-06-10T09:20:20;35.10;98.30
17007;DHT22;8620;51.168;4.154;2023-06-10T09:22:48;35.10;98.20
17007;DHT22;8620;51.168;4.154;2023-06-10T09:25:15;35.20;97.30
17007;DHT22;8620;51.168;4.154;2023-06-10T09:27:50;34.50;97.30
17007;DHT22;8620;51.168;4.154;2023-06-10T09:30:30;34.00;97.00
17007;DHT22;8620;51.168;4.154;2023-06-10T09:32:59;33.50;96.50
17007;DHT22;8620;51.168;4.154;2023-06-10T09:35:27;33.70;96.30
17007;DHT22;8620;51.168;4.154;2023-06-10T09:37:57;34.00;96.70
17007;DHT22;8620;51.168;4.154;2023-06-10T09:40:24;33.10;96.20
17007;DHT22;8620;51.168;4.154;2023-06-10T09:43:00;33.00;96.90
17007;DHT22;8620;51.168;4.154;2023-06-10T09:45:30;32.90;96.70
17007;DHT22;8620;51.168;4.154;2023-06-10T09:47:57;33.00;96.60
17007;DHT22;8620;51.168;4.154;2023-06-10T09:50:23;33.30;96.30
17007;DHT22;8620;51.168;4.154;2023-06-10T09:52:50;33.40;96.40
17007;DHT22;8620;51.168;4.154;2023-06-10T09:55:16;34.00;96.10
17007;DHT22;8620;51.168;4.154;2023-06-10T09:57:54;34.50;95.60
17007;DHT22;8620;51.168;4.154;2023-06-10T10:00:22;34.50;95.10
17007;DHT22;8620;51.168;4.154;2023-06-10T10:02:50;33.50;95.70
17007;DHT22;8620;51.168;4.154;2023-06-10T10:05:22;33.40;95.70
17007;DHT22;8620;51.168;4.154;2023-06-10T10:07:51;33.70;96.10
17007;DHT22;8620;51.168;4.154;2023-06-10T10:10:22;34.40;94.90
17007;DHT22;8620;51.168;4.154;2023-06-10T10:12:57;34.60;94.70
17007;DHT22;8620;51.168;4.154;2023-06-10T10:15:35;35.30;94.20
17007;DHT22;8620;51.168;4.154;2023-06-10T10:18:09;35.10;92.20
17007;DHT22;8620;51.168;4.154;2023-06-10T10:20:49;34.50;93.30
17007;DHT22;8620;51.168;4.154;2023-06-10T10:33:29;33.30;92.70
17007;DHT22;8620;51.168;4.154;2023-06-10T10:36:03;31.80;93.70
17007;DHT22;8620;51.168;4.154;2023-06-10T10:38:33;32.10;94.60
17007;DHT22;8620;51.168;4.154;2023-06-10T10:41:10;33.80;93.20
17007;DHT22;8620;51.168;4.154;2023-06-10T10:43:39;34.40;92.10
17007;DHT22;8620;51.168;4.154;2023-06-10T10:46:12;34.50;91.90
17007;DHT22;8620;51.168;4.154;2023-06-10T10:48:39;33.70;91.70
17007;DHT22;8620;51.168;4.154;2023-06-10T10:51:09;33.90;92.10
17007;DHT22;8620;51.168;4.154;2023-06-10T10:53:39;34.20;91.50
17007;DHT22;8620;51.168;4.154;2023-06-10T10:56:34;34.40;90.90
17007;DHT22;8620;51.168;4.154;2023-06-10T10:59:04;35.10;90.70
17007;DHT22;8620;51.168;4.154;2023-06-10T11:01:41;34.30;90.00
17007;DHT22;8620;51.168;4.154;2023-06-10T11:04:15;34.30;90.60
17007;DHT22;8620;51.168;4.154;2023-06-10T11:06:53;34.90;90.40
17007;DHT22;8620;51.168;4.154;2023-06-10T11:09:27;33.40;90.00
17007;DHT22;8620;51.168;4.154;2023-06-10T11:11:57;33.60;90.30
17007;DHT22;8620;51.168;4.154;2023-06-10T11:14:30;34.30;88.50
17007;DHT22;8620;51.168;4.154;2023-06-10T11:16:58;34.10;87.50
17007;DHT22;8620;51.168;4.154;2023-06-10T11:19:38;34.00;87.50
17007;DHT22;8620;51.168;4.154;2023-06-10T11:22:19;33.50;89.20
17007;DHT22;8620;51.168;4.154;2023-06-10T11:25:13;34.00;89.10
17007;DHT22;8620;51.168;4.154;2023-06-10T11:27:40;34.50;87.50
17007;DHT22;8620;51.168;4.154;2023-06-10T11:32:35;34.10;86.50
17007;DHT22;8620;51.168;4.154;2023-06-10T11:35:07;33.90;86.70
17007;DHT22;8620;51.168;4.154;2023-06-10T11:37:46;34.00;86.80
17007;DHT22;8620;51.168;4.154;2023-06-10T11:40:13;34.00;85.50
17007;DHT22;8620;51.168;4.154;2023-06-10T11:42:40;34.00;85.20
17007;DHT22;8620;51.168;4.154;2023-06-10T11:45:08;33.60;84.80
17007;DHT22;8620;51.168;4.154;2023-06-10T11:48:09;33.00;86.10
17007;DHT22;8620;51.168;4.154;2023-06-10T11:50:37;33.80;86.30
17007;DHT22;8620;51.168;4.154;2023-06-10T11:53:03;33.80;86.80
17007;DHT22;8620;51.168;4.154;2023-06-10T11:55:47;34.10;85.70
17007;DHT22;8620;51.168;4.154;2023-06-10T11:58:22;33.90;84.90
17007;DHT22;8620;51.168;4.154;2023-06-10T12:00:57;33.50;84.70
17007;DHT22;8620;51.168;4.154;2023-06-10T12:03:24;33.10;84.40
17007;DHT22;8620;51.168;4.154;2023-06-10T12:06:02;33.30;85.80
17007;DHT22;8620;51.168;4.154;2023-06-10T12:08:30;32.70;86.10
17007;DHT22;8620;51.168;4.154;2023-06-10T12:10:59;33.00;85.20
17007;DHT22;8620;51.168;4.154;2023-06-10T12:13:28;33.10;86.30
17007;DHT22;8620;51.168;4.154;2023-06-10T12:16:10;33.10;85.40
17007;DHT22;8620;51.168;4.154;2023-06-10T12:19:03;32.60;84.30
17007;DHT22;8620;51.168;4.154;2023-06-10T12:21:30;32.40;83.40
17007;DHT22;8620;51.168;4.154;2023-06-10T12:24:03;32.80;84.40
17007;DHT22;8620;51.168;4.154;2023-06-10T12:26:43;33.00;84.30
17007;DHT22;8620;51.168;4.154;2023-06-10T12:29:24;32.70;83.10
17007;DHT22;8620;51.168;4.154;2023-06-10T12:31:59;32.00;85.10
17007;DHT22;8620;51.168;4.154;2023-06-10T12:34:37;32.20;84.70
17007;DHT22;8620;51.168;4.154;2023-06-10T12:37:09;32.40;85.50
17007;DHT22;8620;51.168;4.154;2023-06-10T12:40:09;32.50;84.90
17007;DHT22;8620;51.168;4.154;2023-06-10T12:42:41;32.30;84.80
17007;DHT22;8620;51.168;4.154;2023-06-10T12:45:47;32.10;84.40
17007;DHT22;8620;51.168;4.154;2023-06-10T12:48:17;31.90;85.20
17007;DHT22;8620;51.168;4.154;2023-06-10T12:50:51;31.90;85.10
17007;DHT22;8620;51.168;4.154;2023-06-10T12:53:19;31.80;85.20
17007;DHT22;8620;51.168;4.154;2023-06-10T12:55:49;31.90;85.80
17007;DHT22;8620;51.168;4.154;2023-06-10T12:58:23;31.70;84.30
17007;DHT22;8620;51.168;4.154;2023-06-10T13:00:59;31.50;84.10
17007;DHT22;8620;51.168;4.154;2023-06-10T13:03:33;31.60;85.90
17007;DHT22;8620;51.168;4.154;2023-06-10T13:06:01;32.30;85.90
17007;DHT22;8620;51.168;4.154;2023-06-10T13:08:30;32.30;81.30
17007;DHT22;8620;51.168;4.154;2023-06-10T13:10:56;32.00;81.20
17007;DHT22;8620;51.168;4.154;2023-06-10T13:13:23;32.00;82.10
17007;DHT22;8620;51.168;4.154;2023-06-10T13:15:50;32.00;81.50
17007;DHT22;8620;51.168;4.154;2023-06-10T13:18:16;31.80;82.40
17007;DHT22;8620;51.168;4.154;2023-06-10T13:20:44;32.00;83.60
17007;DHT22;8620;51.168;4.154;2023-06-10T13:23:10;31.90;82.00
17007;DHT22;8620;51.168;4.154;2023-06-10T13:25:36;31.70;82.10
17007;DHT22;8620;51.168;4.154;2023-06-10T13:28:02;31.90;83.10
17007;DHT22;8620;51.168;4.154;2023-06-10T13:30:38;31.50;83.20
17007;DHT22;8620;51.168;4.154;2023-06-10T13:33:06;31.50;83.50
17007;DHT22;8620;51.168;4.154;2023-06-10T13:36:10;31.60;83.00
17007;DHT22;8620;51.168;4.154;2023-06-10T13:38:54;31.40;83.10
17007;DHT22;8620;51.168;4.154;2023-06-10T13:41:31;31.70;82.70
17007;DHT22;8620;51.168;4.154;2023-06-10T13:44:00;31.90;83.30
17007;DHT22;8620;51.168;4.154;2023-06-10T13:46:28;32.00;83.60
17007;DHT22;8620;51.168;4.154;2023-06-10T13:48:57;32.00;83.00
17007;DHT22;8620;51.168;4.154;2023-06-10T13:51:23;32.10;82.70
17007;DHT22;8620;51.168;4.154;2023-06-10T13:54:15;32.20;81.50
17007;DHT22;8620;51.168;4.154;2023-06-10T13:56:43;32.40;82.00
17007;DHT22;8620;51.168;4.154;2023-06-10T13:59:15;32.50;82.50
17007;DHT22;8620;51.168;4.154;2023-06-10T14:01:41;32.00;82.80
17007;DHT22;8620;51.168;4.154;2023-06-10T14:04:16;31.70;82.10
17007;DHT22;8620;51.168;4.154;2023-06-10T14:06:47;31.90;82.40
17007;DHT22;8620;51.168;4.154;2023-06-10T14:09:36;31.70;84.20
17007;DHT22;8620;51.168;4.154;2023-06-10T14:12:29;31.70;82.30
17007;DHT22;8620;51.168;4.154;2023-06-10T14:15:11;31.70;81.70
17007;DHT22;8620;51.168;4.154;2023-06-10T14:17:37;31.60;82.00
17007;DHT22;8620;51.168;4.154;2023-06-10T14:20:25;31.60;81.80
17007;DHT22;8620;51.168;4.154;2023-06-10T14:22:57;31.20;81.40
17007;DHT22;8620;51.168;4.154;2023-06-10T14:25:25;31.50;83.60
17007;DHT22;8620;51.168;4.154;2023-06-10T14:27:54;31.60;81.90
17007;DHT22;8620;51.168;4.154;2023-06-10T14:30:23;31.40;81.60
17007;DHT22;8620;51.168;4.154;2023-06-10T14:32:54;31.50;83.00
17007;DHT22;8620;51.168;4.154;2023-06-10T14:35:38;31.60;82.70
17007;DHT22;8620;51.168;4.154;2023-06-10T14:38:11;31.50;83.00
17007;DHT22;8620;51.168;4.154;2023-06-10T14:41:18;31.40;82.60
17007;DHT22;8620;51.168;4.154;2023-06-10T14:43:47;31.30;82.80
17007;DHT22;8620;51.168;4.154;2023-06-10T14:46:22;31.40;83.50
17007;DHT22;8620;51.168;4.154;2023-06-10T14:48:48;31.20;82.50
17007;DHT22;8620;51.168;4.154;2023-06-10T14:51:15;31.60;81.70
17007;DHT22;8620;51.168;4.154;2023-06-10T14:53:41;31.60;81.60
17007;DHT22;8620;51.168;4.154;2023-06-10T14:56:07;31.70;80.60
17007;DHT22;8620;51.168;4.154;2023-06-10T14:58:33;31.70;80.60
17007;DHT22;8620;51.168;4.154;2023-06-10T15:00:59;31.80;80.40
17007;DHT22;8620;51.168;4.154;2023-06-10T15:03:25;31.90;81.70
17007;DHT22;8620;51.168;4.154;2023-06-10T15:05:51;32.00;80.80
17007;DHT22;8620;51.168;4.154;2023-06-10T15:08:17;31.50;81.40
17007;DHT22;8620;51.168;4.154;2023-06-10T15:10:48;31.60;80.70
17007;DHT22;8620;51.168;4.154;2023-06-10T15:13:14;31.70;82.20
17007;DHT22;8620;51.168;4.154;2023-06-10T15:15:47;31.80;81.60
17007;DHT22;8620;51.168;4.154;2023-06-10T15:18:18;31.70;81.70
17007;DHT22;8620;51.168;4.154;2023-06-10T15:20:47;31.70;82.40
17007;DHT22;8620;51.168;4.154;2023-06-10T15:23:13;31.80;81.60
17007;DHT22;8620;51.168;4.154;2023-06-10T15:25:48;31.20;81.20
17007;DHT22;8620;51.168;4.154;2023-06-10T15:28:14;31.10;81.70
17007;DHT22;8620;51.168;4.154;2023-06-10T15:30:42;31.50;83.40
17007;DHT22;8620;51.168;4.154;2023-06-10T15:33:11;31.40;81.30
17007;DHT22;8620;51.168;4.154;2023-06-10T15:36:14;31.40;82.30
17007;DHT22;8620;51.168;4.154;2023-06-10T15:39:04;31.20;80.80
17007;DHT22;8620;51.168;4.154;2023-06-10T15:41:41;31.40;80.50
17007;DHT22;8620;51.168;4.154;2023-06-10T15:44:07;31.40;80.70
17007;DHT22;8620;51.168;4.154;2023-06-10T15:46:33;31.40;79.70
17007;DHT22;8620;51.168;4.154;2023-06-10T15:49:00;31.30;80.60
17007;DHT22;8620;51.168;4.154;2023-06-10T15:51:26;31.10;79.70
17007;DHT22;8620;51.168;4.154;2023-06-10T15:53:52;30.90;79.70
17007;DHT22;8620;51.168;4.154;2023-06-10T15:56:18;30.90;81.20
17007;DHT22;8620;51.168;4.154;2023-06-10T15:58:47;31.10;80.30
17007;DHT22;8620;51.168;4.154;2023-06-10T16:01:14;31.10;81.10
17007;DHT22;8620;51.168;4.154;2023-06-10T16:03:40;31.40;81.60
17007;DHT22;8620;51.168;4.154;2023-06-10T16:06:07;31.60;81.00
17007;DHT22;8620;51.168;4.154;2023-06-10T16:08:33;31.50;80.10
17007;DHT22;8620;51.168;4.154;2023-06-10T16:11:02;31.50;79.90
17007;DHT22;8620;51.168;4.154;2023-06-10T16:13:32;31.50;79.60
17007;DHT22;8620;51.168;4.154;2023-06-10T16:16:03;31.60;80.60
17007;DHT22;8620;51.168;4.154;2023-06-10T16:18:29;31.60;80.20
17007;DHT22;8620;51.168;4.154;2023-06-10T16:20:55;31.50;79.30
17007;DHT22;8620;51.168;4.154;2023-06-10T16:23:28;31.50;80.10
17007;DHT22;8620;51.168;4.154;2023-06-10T16:25:54;31.30;78.20
17007;DHT22;8620;51.168;4.154;2023-06-10T16:28:20;31.20;79.20
17007;DHT22;8620;51.168;4.154;2023-06-10T16:30:46;31.10;78.80
17007;DHT22;8620;51.168;4.154;2023-06-10T16:33:21;31.20;79.30
17007;DHT22;8620;51.168;4.154;2023-06-10T16:35:47;31.40;77.10
17007;DHT22;8620;51.168;4.154;2023-06-10T16:38:13;31.50;76.60
17007;DHT22;8620;51.168;4.154;2023-06-10T16:40:38;31.10;77.60
17007;DHT22;8620;51.168;4.154;2023-06-10T16:43:13;31.20;78.70
17007;DHT22;8620;51.168;4.154;2023-06-10T16:45:39;31.40;78.00
17007;DHT22;8620;51.168;4.154;2023-06-10T16:48:13;31.40;78.10
17007;DHT22;8620;51.168;4.154;2023-06-10T16:50:39;31.60;78.20
17007;DHT22;8620;51.168;4.154;2023-06-10T16:53:12;31.50;77.70
17007;DHT22;8620;51.168;4.154;2023-06-10T16:55:48;31.40;77.60
17007;DHT22;8620;51.168;4.154;2023-06-10T16:58:14;31.30;78.30
17007;DHT22;8620;51.168;4.154;2023-06-10T17:00:40;31.00;78.10
17007;DHT22;8620;51.168;4.154;2023-06-10T17:03:11;31.00;77.80
17007;DHT22;8620;51.168;4.154;2023-06-10T17:05:38;30.80;79.10
17007;DHT22;8620;51.168;4.154;2023-06-10T17:08:04;30.80;78.50
17007;DHT22;8620;51.168;4.154;2023-06-10T17:10:32;30.90;78.10
17007;DHT22;8620;51.168;4.154;2023-06-10T17:13:07;30.90;78.50
17007;DHT22;8620;51.168;4.154;2023-06-10T17:15:33;31.00;77.60
17007;DHT22;8620;51.168;4.154;2023-06-10T17:18:00;31.00;78.30
17007;DHT22;8620;51.168;4.154;2023-06-10T17:20:26;31.10;78.40
17007;DHT22;8620;51.168;4.154;2023-06-10T17:22:54;31.10;77.50
17007;DHT22;8620;51.168;4.154;2023-06-10T17:25:20;31.10;78.60
17007;DHT22;8620;51.168;4.154;2023-06-10T17:27:46;31.10;79.20
17007;DHT22;8620;51.168;4.154;2023-06-10T17:30:16;30.90;79.20
17007;DHT22;8620;51.168;4.154;2023-06-10T17:32:43;30.80;79.50
17007;DHT22;8620;51.168;4.154;2023-06-10T17:35:11;30.90;77.90
17007;DHT22;8620;51.168;4.154;2023-06-10T17:37:45;30.70;78.30
17007;DHT22;8620;51.168;4.154;2023-06-10T17:40:16;30.90;79.40
17007;DHT22;8620;51.168;4.154;2023-06-10T17:43:16;30.80;78.60
17007;DHT22;8620;51.168;4.154;2023-06-10T17:46:05;30.80;78.60
17007;DHT22;8620;51.168;4.154;2023-06-10T17:49:09;30.80;78.90
17007;DHT22;8620;51.168;4.154;2023-06-10T17:51:50;30.70;79.40
17007;DHT22;8620;51.168;4.154;2023-06-10T17:54:17;30.40;80.10
17007;DHT22;8620;51.168;4.154;2023-06-10T17:57:04;30.50;80.40
17007;DHT22;8620;51.168;4.154;2023-06-10T17:59:30;30.40;79.80
17007;DHT22;8620;51.168;4.154;2023-06-10T18:02:16;30.50;80.20
17007;DHT22;8620;51.168;4.154;2023-06-10T18:04:44;30.60;80.50
17007;DHT22;8620;51.168;4.154;2023-06-10T18:07:40;30.60;80.40
17007;DHT22;8620;51.168;4.154;2023-06-10T18:10:42;30.60;80.40
17007;DHT22;8620;51.168;4.154;2023-06-10T18:14:12;30.60;80.60
17007;DHT22;8620;51.168;4.154;2023-06-10T18:17:12;30.80;80.20
17007;DHT22;8620;51.168;4.154;2023-06-10T18:20:20;30.70;80.40
17007;DHT22;8620;51.168;4.154;2023-06-10T18:23:27;30.80;80.30
17007;DHT22;8620;51.168;4.154;2023-06-10T18:25:58;30.80;80.70
17007;DHT22;8620;51.168;4.154;2023-06-10T18:28:27;30.70;80.80
17007;DHT22;8620;51.168;4.154;2023-06-10T18:31:24;30.50;81.20
17007;DHT22;8620;51.168;4.154;2023-06-10T18:34:12;30.20;82.30
17007;DHT22;8620;51.168;4.154;2023-06-10T18:36:43;30.20;83.30
17007;DHT22;8620;51.168;4.154;2023-06-10T18:39:32;30.20;83.40
17007;DHT22;8620;51.168;4.154;2023-06-10T18:42:33;29.90;84.50
17007;DHT22;8620;51.168;4.154;2023-06-10T18:45:26;30.00;84.50
17007;DHT22;8620;51.168;4.154;2023-06-10T18:48:18;29.80;85.10
17007;DHT22;8620;51.168;4.154;2023-06-10T18:51:13;30.00;85.00
17007;DHT22;8620;51.168;4.154;2023-06-10T18:53:51;30.10;85.00
17007;DHT22;8620;51.168;4.154;2023-06-10T18:56:58;30.10;85.40
17007;DHT22;8620;51.168;4.154;2023-06-10T18:59:35;30.00;85.30
17007;DHT22;8620;51.168;4.154;2023-06-10T19:02:39;29.90;86.00
17007;DHT22;8620;51.168;4.154;2023-06-10T19:05:30;29.80;86.60
17007;DHT22;8620;51.168;4.154;2023-06-10T19:08:18;29.80;87.00
17007;DHT22;8620;51.168;4.154;2023-06-10T19:11:02;29.70;87.60
17007;DHT22;8620;51.168;4.154;2023-06-10T19:13:48;29.50;87.80
17007;DHT22;8620;51.168;4.154;2023-06-10T19:16:27;29.50;88.30
17007;DHT22;8620;51.168;4.154;2023-06-10T19:19:14;29.60;88.50
17007;DHT22;8620;51.168;4.154;2023-06-10T19:21:49;29.60;88.80
17007;DHT22;8620;51.168;4.154;2023-06-10T19:24:24;29.60;89.00
17007;DHT22;8620;51.168;4.154;2023-06-10T19:27:12;29.40;89.50
17007;DHT22;8620;51.168;4.154;2023-06-10T19:30:06;29.20;89.90
17007;DHT22;8620;51.168;4.154;2023-06-10T19:33:00;29.00;90.30
17007;DHT22;8620;51.168;4.154;2023-06-10T19:35:46;29.00;90.30
17007;DHT22;8620;51.168;4.154;2023-06-10T19:38:35;28.90;90.30
17007;DHT22;8620;51.168;4.154;2023-06-10T19:41:22;28.90;90.80
17007;DHT22;8620;51.168;4.154;2023-06-10T19:44:10;28.80;90.70
17007;DHT22;8620;51.168;4.154;2023-06-10T19:47:01;29.00;90.70
17007;DHT22;8620;51.168;4.154;2023-06-10T19:49:47;28.90;90.90
17007;DHT22;8620;51.168;4.154;2023-06-10T19:52:33;28.80;90.90
17007;DHT22;8620;51.168;4.154;2023-06-10T19:55:38;28.50;91.30
17007;DHT22;8620;51.168;4.154;2023-06-10T19:58:19;28.60;91.30
17007;DHT22;8620;51.168;4.154;2023-06-10T20:00:50;28.50;91.50
17007;DHT22;8620;51.168;4.154;2023-06-10T20:03:45;28.40;91.50
17007;DHT22;8620;51.168;4.154;2023-06-10T20:06:36;28.40;91.60
17007;DHT22;8620;51.168;4.154;2023-06-10T20:09:25;28.30;91.60
17007;DHT22;8620;51.168;4.154;2023-06-10T20:12:09;28.10;91.80
17007;DHT22;8620;51.168;4.154;2023-06-10T20:14:44;28.00;91.90
17007;DHT22;8620;51.168;4.154;2023-06-10T20:17:38;28.00;92.10
17007;DHT22;8620;51.168;4.154;2023-06-10T20:20:27;28.00;92.10
17007;DHT22;8620;51.168;4.154;2023-06-10T20:23:14;28.00;92.20
17007;DHT22;8620;51.168;4.154;2023-06-10T20:29:18;27.80;92.70
17007;DHT22;8620;51.168;4.154;2023-06-10T20:31:51;27.70;92.70
17007;DHT22;8620;51.168;4.154;2023-06-10T20:34:48;27.60;92.70
17007;DHT22;8620;51.168;4.154;2023-06-10T20:37:31;27.50;92.80
17007;DHT22;8620;51.168;4.154;2023-06-10T20:40:05;27.60;92.80
17007;DHT22;8620;51.168;4.154;2023-06-10T20:43:09;27.50;93.00
17007;DHT22;8620;51.168;4.154;2023-06-10T20:45:36;27.50;93.20
17007;DHT22;8620;51.168;4.154;2023-06-10T20:48:27;27.30;93.40
17007;DHT22;8620;51.168;4.154;2023-06-10T20:51:21;27.30;93.60
17007;DHT22;8620;51.168;4.154;2023-06-10T20:53:47;27.30;93.70
17007;DHT22;8620;51.168;4.154;2023-06-10T20:56:13;27.20;93.70
